Aviation Digital Data Service (ADDS)

Output produced by METARs form (1824 UTC 24 June 2018)
found at http://aviationweather.gov/adds/metars/
 
KDAN 241720Z 2418/2518 25009KT P6SM VCSH FEW030 
     FM242000 25010KT P6SM VCTS FEW030CB 
     FM242300 31006KT P6SM SCT250 
     FM250600 VRB02KT P6SM FEW250